LATEST ENTRIES
RECENT COMMENTS
RECENT TRACKBACK
ARCHIVES
CATEGORIES
OTHERS
SEARCH

スポンサーサイト
- / スポンサードリンク

一定期間更新がないため広告を表示しています

| - | - |
pagetop
やっと飛行訓練再開しました!!
飛行機 / Dream Pilot
大変の待てせいたしました。 やっと飛行訓練が再び始まりました。飛行機
まずは今日のサンダーベイの気象状況。
WIND NE 4 km/h
GUSTS N/A
RELATIVE HUMIDITY 39%
DEWPOINT -6°C
PRESSURE 103.50 kPa
VISIBILITY 32 km
CEILING unlimited

METAR :CYQT 141500Z 00000KT 20SM SKC M02/M06 A3055 RMK SLP358=

TAF :CYQT 141339Z 141402 VRB03KT P6SM SKC
BECMG 1618 26008KT
RMK NXT FCST BY 20Z

見てもらえば分かると思います、今日の朝は最高の飛行条件でしたよ。風もなく、湿度もなく最適な状況でした。

今日はちょいとしたチェックフライトでした。確認した内容ストール、スローフライト、スピン、そして数回サーキットトレーニングを行いました。

今日のフライトは朝10開始だったのですが、遅刻してしまいました。
昨日クラブにいき家に帰ってきたのが2:30AM・・・
なんとおきたら、9:50AMびっくり
アー大変だ。タクシー呼んで空港まで行きました。かなり焦り・・・ジョギング

だけど飛行訓練に金かかりますよねーお金お金お金お金
痛いなー。。工具 本当に親に申し訳が無いです、もちろん大学卒業したら返していくつもりです・・・・拍手

今日はセスナの写真貼っておきました。




Click Here!




Click Here!




Click Here!




Click Here!




Click Here!




Click Here!


| comments(5) | trackbacks(0) |
pagetop
<< もう今年も1ヶ月半で終わりですね・・・・・ | main | 夜間飛行始まりましたよ。 >>
スポンサーサイト
- / スポンサードリンク
| - | - |
pagetop
great site
i love u
who is
phentermine yellow (2006/03/15 10:44 PM)
今日は最高のコンディションでしたよ。
僕は10時半から飛んでいましたよ。
風もなく最高でした。
最近は忙しいのでなかなか時間取れませんが、時間が空き次第、カフェテリアとかで話しましょ。
YM (2004/11/15 11:30 AM)
おっ、飛んだのね〜。
うちのHASは、午後から飛んでたよ。
今日は天気も良かったし気持ち良かっただろうなぁ。

AKE@カナダ学生生活 (2004/11/15 10:04 AM)









url: http://vivamexico.jugem.jp/trackback/23

11
--
1
2
3
4
5
6
7
8
9
10
11
12
13
14
15
16
17
18
19
20
21
22
23
24
25
26
27
28
29
30
--
>>
<<
--